Terminal Aerodrome Forecast
Issued by NWS Nashville, TN

Current Version | Previous Version | Text Only | Print | Product List | Glossary Off
Versions: 1 2 3 4 5 6 7 8 9 10 11 12 13 14

000
FTUS44 KOHX 211100
TAFCSV
TAF
KCSV 211126Z 2112/2212 VRB03KT P6SM SCT250
     FM211600 23008KT P6SM SCT060 BKN250
     FM220500 23005KT P6SM VCSH BKN040 OVC150
     FM220900 24005KT 5SM -RA BR BKN025 OVC050=

USA.gov is the U.S. government's official web portal to all federal, state and local government web resources and services.